Terminal Aerodrome Forecast
Issued by NWS Green Bay, WI

Home | Current Version | Previous Version | Text Only | Print | Product List | Glossary Off
Versions: 1 2 3 4 5 6 7 8 9 10 11 12 13 14 15 16 17 18 19 20 21 22 23 24 25 26 27 28 29 30

000
FTUS43 KGRB 181231 AAA
TAFGRB
TAF AMD
KGRB 181231Z 1813/1912 23006KT 2SM BR OVC003
     FM181600 23009KT 4SM BR SCT003 OVC006
     FM181800 23009KT P6SM SCT006
     FM190000 22008KT P6SM SCT150
     FM190500 23006KT 3SM BR SCT070 SCT150
     FM190800 23003KT 1/2SM FG BKN002 BKN070=

USA.gov is the U.S. government's official web portal to all federal, state and local government web resources and services.